sensor_id;sensor_type;location;lat;lon;timestamp;temperature;humidity
26186;DHT22;20067;48.764;9.176;2022-12-07T00:01:06;4.90;91.30
26186;DHT22;20067;48.764;9.176;2022-12-07T00:03:32;4.80;91.30
26186;DHT22;20067;48.764;9.176;2022-12-07T00:05:58;4.80;91.30
26186;DHT22;20067;48.764;9.176;2022-12-07T00:08:24;4.80;91.30
26186;DHT22;20067;48.764;9.176;2022-12-07T00:10:49;4.90;91.30
26186;DHT22;20067;48.764;9.176;2022-12-07T00:13:15;4.90;91.30
26186;DHT22;20067;48.764;9.176;2022-12-07T00:15:40;4.80;91.30
26186;DHT22;20067;48.764;9.176;2022-12-07T00:18:06;4.80;91.30
26186;DHT22;20067;48.764;9.176;2022-12-07T00:20:32;4.80;91.30
26186;DHT22;20067;48.764;9.176;2022-12-07T00:22:58;4.80;91.30
26186;DHT22;20067;48.764;9.176;2022-12-07T00:25:24;4.90;91.30
26186;DHT22;20067;48.764;9.176;2022-12-07T00:27:50;4.90;91.30
26186;DHT22;20067;48.764;9.176;2022-12-07T00:30:17;5.00;91.30
26186;DHT22;20067;48.764;9.176;2022-12-07T00:32:42;5.00;91.30
26186;DHT22;20067;48.764;9.176;2022-12-07T00:35:08;5.00;91.30
26186;DHT22;20067;48.764;9.176;2022-12-07T00:37:33;4.90;91.30
26186;DHT22;20067;48.764;9.176;2022-12-07T00:39:59;4.80;91.30
26186;DHT22;20067;48.764;9.176;2022-12-07T00:42:24;4.80;91.30
26186;DHT22;20067;48.764;9.176;2022-12-07T00:44:50;4.70;91.30
26186;DHT22;20067;48.764;9.176;2022-12-07T00:47:16;4.50;91.30
26186;DHT22;20067;48.764;9.176;2022-12-07T00:49:41;4.60;91.30
26186;DHT22;20067;48.764;9.176;2022-12-07T00:52:07;4.60;91.30
26186;DHT22;20067;48.764;9.176;2022-12-07T00:54:32;4.70;91.30
26186;DHT22;20067;48.764;9.176;2022-12-07T00:56:58;4.70;91.30
26186;DHT22;20067;48.764;9.176;2022-12-07T00:59:24;4.80;91.30
26186;DHT22;20067;48.764;9.176;2022-12-07T01:01:49;4.90;91.30
26186;DHT22;20067;48.764;9.176;2022-12-07T01:04:15;4.80;91.30
26186;DHT22;20067;48.764;9.176;2022-12-07T01:06:41;4.80;91.30
26186;DHT22;20067;48.764;9.176;2022-12-07T01:09:06;4.70;91.30
26186;DHT22;20067;48.764;9.176;2022-12-07T01:11:32;4.70;91.30
26186;DHT22;20067;48.764;9.176;2022-12-07T01:13:59;4.80;91.30
26186;DHT22;20067;48.764;9.176;2022-12-07T01:16:27;4.90;91.30
26186;DHT22;20067;48.764;9.176;2022-12-07T01:18:56;4.80;91.30
26186;DHT22;20067;48.764;9.176;2022-12-07T01:21:28;4.80;91.30
26186;DHT22;20067;48.764;9.176;2022-12-07T01:23:54;4.80;91.30
26186;DHT22;20067;48.764;9.176;2022-12-07T01:26:24;4.70;91.30
26186;DHT22;20067;48.764;9.176;2022-12-07T01:28:50;4.80;91.30
26186;DHT22;20067;48.764;9.176;2022-12-07T01:31:19;4.70;91.30
26186;DHT22;20067;48.764;9.176;2022-12-07T01:33:49;4.60;91.30
26186;DHT22;20067;48.764;9.176;2022-12-07T01:38:50;4.70;91.30
26186;DHT22;20067;48.764;9.176;2022-12-07T01:41:19;4.70;91.30
26186;DHT22;20067;48.764;9.176;2022-12-07T01:46:32;4.70;91.30
26186;DHT22;20067;48.764;9.176;2022-12-07T01:48:59;4.70;91.30
26186;DHT22;20067;48.764;9.176;2022-12-07T01:51:25;4.80;91.30
26186;DHT22;20067;48.764;9.176;2022-12-07T01:53:51;4.70;91.30
26186;DHT22;20067;48.764;9.176;2022-12-07T01:56:20;4.70;91.30
26186;DHT22;20067;48.764;9.176;2022-12-07T01:58:50;4.80;91.30
26186;DHT22;20067;48.764;9.176;2022-12-07T02:01:17;4.80;91.30
26186;DHT22;20067;48.764;9.176;2022-12-07T02:03:43;4.90;91.30
26186;DHT22;20067;48.764;9.176;2022-12-07T02:06:13;4.90;91.30
26186;DHT22;20067;48.764;9.176;2022-12-07T02:08:42;4.90;91.30
26186;DHT22;20067;48.764;9.176;2022-12-07T02:11:08;5.00;91.30
26186;DHT22;20067;48.764;9.176;2022-12-07T02:13:36;5.00;91.30
26186;DHT22;20067;48.764;9.176;2022-12-07T02:27:07;4.90;91.30
26186;DHT22;20067;48.764;9.176;2022-12-07T02:30:09;4.90;91.30
26186;DHT22;20067;48.764;9.176;2022-12-07T02:38:13;5.00;91.30
26186;DHT22;20067;48.764;9.176;2022-12-07T02:40:47;5.00;91.30
26186;DHT22;20067;48.764;9.176;2022-12-07T02:43:24;5.00;91.30
26186;DHT22;20067;48.764;9.176;2022-12-07T02:45:52;5.00;91.30
26186;DHT22;20067;48.764;9.176;2022-12-07T02:48:20;5.10;91.30
26186;DHT22;20067;48.764;9.176;2022-12-07T02:50:53;5.10;91.30
26186;DHT22;20067;48.764;9.176;2022-12-07T02:53:29;5.20;91.30
26186;DHT22;20067;48.764;9.176;2022-12-07T02:55:56;5.20;91.30
26186;DHT22;20067;48.764;9.176;2022-12-07T03:04:08;4.80;91.30
26186;DHT22;20067;48.764;9.176;2022-12-07T03:06:43;4.60;91.30
26186;DHT22;20067;48.764;9.176;2022-12-07T03:09:29;4.50;91.30
26186;DHT22;20067;48.764;9.176;2022-12-07T03:12:10;4.40;91.30
26186;DHT22;20067;48.764;9.176;2022-12-07T03:14:44;4.40;91.30
26186;DHT22;20067;48.764;9.176;2022-12-07T03:17:18;4.30;91.30
26186;DHT22;20067;48.764;9.176;2022-12-07T03:19:46;4.40;91.30
26186;DHT22;20067;48.764;9.176;2022-12-07T03:22:14;4.50;91.30
26186;DHT22;20067;48.764;9.176;2022-12-07T03:24:45;4.50;91.30
26186;DHT22;20067;48.764;9.176;2022-12-07T03:27:20;4.50;91.30
26186;DHT22;20067;48.764;9.176;2022-12-07T03:29:54;4.40;91.30
26186;DHT22;20067;48.764;9.176;2022-12-07T03:37:36;4.60;91.30
26186;DHT22;20067;48.764;9.176;2022-12-07T03:42:30;4.50;91.30
26186;DHT22;20067;48.764;9.176;2022-12-07T03:44:56;4.50;91.30
26186;DHT22;20067;48.764;9.176;2022-12-07T03:50:23;4.50;91.30
26186;DHT22;20067;48.764;9.176;2022-12-07T03:52:58;4.50;91.30
26186;DHT22;20067;48.764;9.176;2022-12-07T03:55:30;4.50;91.30
26186;DHT22;20067;48.764;9.176;2022-12-07T03:58:05;4.60;91.30
26186;DHT22;20067;48.764;9.176;2022-12-07T04:00:32;4.50;91.30
26186;DHT22;20067;48.764;9.176;2022-12-07T04:02:58;4.50;91.30
26186;DHT22;20067;48.764;9.176;2022-12-07T04:05:24;4.60;91.30
26186;DHT22;20067;48.764;9.176;2022-12-07T04:07:50;4.60;91.30
26186;DHT22;20067;48.764;9.176;2022-12-07T04:10:15;4.50;91.30
26186;DHT22;20067;48.764;9.176;2022-12-07T04:12:41;4.50;91.30
26186;DHT22;20067;48.764;9.176;2022-12-07T04:15:07;4.50;91.30
26186;DHT22;20067;48.764;9.176;2022-12-07T04:17:33;4.40;91.30
26186;DHT22;20067;48.764;9.176;2022-12-07T04:19:58;4.40;91.30
26186;DHT22;20067;48.764;9.176;2022-12-07T04:22:24;4.40;91.30
26186;DHT22;20067;48.764;9.176;2022-12-07T04:24:50;4.30;91.30
26186;DHT22;20067;48.764;9.176;2022-12-07T04:27:15;4.30;91.30
26186;DHT22;20067;48.764;9.176;2022-12-07T04:29:41;4.30;91.30
26186;DHT22;20067;48.764;9.176;2022-12-07T04:32:06;4.40;91.30
26186;DHT22;20067;48.764;9.176;2022-12-07T04:34:32;4.40;91.30
26186;DHT22;20067;48.764;9.176;2022-12-07T04:36:58;4.30;91.30
26186;DHT22;20067;48.764;9.176;2022-12-07T04:39:27;4.20;91.30
26186;DHT22;20067;48.764;9.176;2022-12-07T04:41:53;4.20;91.30
26186;DHT22;20067;48.764;9.176;2022-12-07T04:44:20;4.20;91.30
26186;DHT22;20067;48.764;9.176;2022-12-07T04:46:46;4.20;91.30
26186;DHT22;20067;48.764;9.176;2022-12-07T04:49:13;4.20;91.30
26186;DHT22;20067;48.764;9.176;2022-12-07T04:51:39;4.20;91.30
26186;DHT22;20067;48.764;9.176;2022-12-07T04:54:05;4.30;91.30
26186;DHT22;20067;48.764;9.176;2022-12-07T04:56:30;4.20;91.30
26186;DHT22;20067;48.764;9.176;2022-12-07T04:58:56;4.30;91.30
26186;DHT22;20067;48.764;9.176;2022-12-07T05:01:22;4.20;91.30
26186;DHT22;20067;48.764;9.176;2022-12-07T05:03:48;4.30;91.30
26186;DHT22;20067;48.764;9.176;2022-12-07T05:06:14;4.30;91.30
26186;DHT22;20067;48.764;9.176;2022-12-07T05:08:41;4.20;91.30
26186;DHT22;20067;48.764;9.176;2022-12-07T05:11:08;4.30;91.20
26186;DHT22;20067;48.764;9.176;2022-12-07T05:13:36;4.30;89.60
26186;DHT22;20067;48.764;9.176;2022-12-07T05:16:02;4.30;89.70
26186;DHT22;20067;48.764;9.176;2022-12-07T05:18:27;4.30;89.80
26186;DHT22;20067;48.764;9.176;2022-12-07T05:20:53;4.30;90.80
26186;DHT22;20067;48.764;9.176;2022-12-07T05:23:19;4.40;90.90
26186;DHT22;20067;48.764;9.176;2022-12-07T05:25:46;4.40;90.80
26186;DHT22;20067;48.764;9.176;2022-12-07T05:28:12;4.50;89.90
26186;DHT22;20067;48.764;9.176;2022-12-07T05:30:37;4.50;90.30
26186;DHT22;20067;48.764;9.176;2022-12-07T05:33:03;4.50;91.00
26186;DHT22;20067;48.764;9.176;2022-12-07T05:35:29;4.50;91.10
26186;DHT22;20067;48.764;9.176;2022-12-07T05:37:55;4.50;91.30
26186;DHT22;20067;48.764;9.176;2022-12-07T05:40:21;4.50;91.30
26186;DHT22;20067;48.764;9.176;2022-12-07T05:42:46;4.40;91.30
26186;DHT22;20067;48.764;9.176;2022-12-07T05:45:12;4.20;91.30
26186;DHT22;20067;48.764;9.176;2022-12-07T05:47:38;4.10;91.30
26186;DHT22;20067;48.764;9.176;2022-12-07T05:50:05;4.00;91.30
26186;DHT22;20067;48.764;9.176;2022-12-07T05:52:31;3.90;91.30
26186;DHT22;20067;48.764;9.176;2022-12-07T05:54:56;3.80;91.30
26186;DHT22;20067;48.764;9.176;2022-12-07T05:57:22;3.80;91.30
26186;DHT22;20067;48.764;9.176;2022-12-07T05:59:48;3.90;91.30
26186;DHT22;20067;48.764;9.176;2022-12-07T06:02:15;3.80;91.30
26186;DHT22;20067;48.764;9.176;2022-12-07T06:04:43;3.90;91.30
26186;DHT22;20067;48.764;9.176;2022-12-07T06:07:11;3.90;91.30
26186;DHT22;20067;48.764;9.176;2022-12-07T06:09:37;3.90;91.30
26186;DHT22;20067;48.764;9.176;2022-12-07T06:12:03;3.90;91.30
26186;DHT22;20067;48.764;9.176;2022-12-07T06:14:47;4.00;91.30
26186;DHT22;20067;48.764;9.176;2022-12-07T06:17:13;4.20;91.30
26186;DHT22;20067;48.764;9.176;2022-12-07T06:19:39;4.30;91.30
26186;DHT22;20067;48.764;9.176;2022-12-07T06:22:05;4.30;91.30
26186;DHT22;20067;48.764;9.176;2022-12-07T06:24:32;4.00;91.30
26186;DHT22;20067;48.764;9.176;2022-12-07T06:26:58;3.90;91.30
26186;DHT22;20067;48.764;9.176;2022-12-07T06:29:24;3.80;91.30
26186;DHT22;20067;48.764;9.176;2022-12-07T06:31:49;3.80;91.30
26186;DHT22;20067;48.764;9.176;2022-12-07T06:34:17;3.90;91.30
26186;DHT22;20067;48.764;9.176;2022-12-07T06:36:43;4.00;91.30
26186;DHT22;20067;48.764;9.176;2022-12-07T06:39:09;4.10;91.30
26186;DHT22;20067;48.764;9.176;2022-12-07T06:41:37;4.10;91.30
26186;DHT22;20067;48.764;9.176;2022-12-07T06:44:06;4.10;91.30
26186;DHT22;20067;48.764;9.176;2022-12-07T06:46:32;4.10;91.30
26186;DHT22;20067;48.764;9.176;2022-12-07T06:48:58;4.00;91.30
26186;DHT22;20067;48.764;9.176;2022-12-07T06:51:23;3.90;91.30
26186;DHT22;20067;48.764;9.176;2022-12-07T06:53:49;3.90;91.30
26186;DHT22;20067;48.764;9.176;2022-12-07T06:56:15;3.90;91.30
26186;DHT22;20067;48.764;9.176;2022-12-07T06:58:41;3.80;91.30
26186;DHT22;20067;48.764;9.176;2022-12-07T07:01:14;3.80;91.30
26186;DHT22;20067;48.764;9.176;2022-12-07T07:03:41;3.80;91.30
26186;DHT22;20067;48.764;9.176;2022-12-07T07:06:07;3.90;91.30
26186;DHT22;20067;48.764;9.176;2022-12-07T07:08:36;3.90;91.30
26186;DHT22;20067;48.764;9.176;2022-12-07T07:11:03;3.90;91.30
26186;DHT22;20067;48.764;9.176;2022-12-07T07:13:29;3.90;91.30
26186;DHT22;20067;48.764;9.176;2022-12-07T07:15:55;4.00;91.30
26186;DHT22;20067;48.764;9.176;2022-12-07T07:18:20;4.10;91.30
26186;DHT22;20067;48.764;9.176;2022-12-07T07:20:46;4.10;91.30
26186;DHT22;20067;48.764;9.176;2022-12-07T07:23:12;4.10;91.30
26186;DHT22;20067;48.764;9.176;2022-12-07T07:25:37;4.10;91.30
26186;DHT22;20067;48.764;9.176;2022-12-07T07:28:04;4.10;91.30
26186;DHT22;20067;48.764;9.176;2022-12-07T07:30:30;4.00;91.30
26186;DHT22;20067;48.764;9.176;2022-12-07T07:32:57;4.10;91.30
26186;DHT22;20067;48.764;9.176;2022-12-07T07:35:23;4.10;91.30
26186;DHT22;20067;48.764;9.176;2022-12-07T07:37:49;4.20;91.30
26186;DHT22;20067;48.764;9.176;2022-12-07T07:40:15;4.20;91.30
26186;DHT22;20067;48.764;9.176;2022-12-07T07:42:41;4.10;91.30
26186;DHT22;20067;48.764;9.176;2022-12-07T07:45:07;4.20;91.30
26186;DHT22;20067;48.764;9.176;2022-12-07T07:47:32;4.20;91.30
26186;DHT22;20067;48.764;9.176;2022-12-07T07:49:58;4.20;91.30
26186;DHT22;20067;48.764;9.176;2022-12-07T07:52:24;4.20;91.30
26186;DHT22;20067;48.764;9.176;2022-12-07T07:54:49;4.30;91.30
26186;DHT22;20067;48.764;9.176;2022-12-07T07:57:16;4.30;91.30
26186;DHT22;20067;48.764;9.176;2022-12-07T07:59:42;4.40;91.30
26186;DHT22;20067;48.764;9.176;2022-12-07T08:02:16;4.40;91.30
26186;DHT22;20067;48.764;9.176;2022-12-07T08:04:42;4.40;91.30
26186;DHT22;20067;48.764;9.176;2022-12-07T08:07:08;4.50;91.30
26186;DHT22;20067;48.764;9.176;2022-12-07T08:09:33;4.60;91.30
26186;DHT22;20067;48.764;9.176;2022-12-07T08:11:59;4.60;90.60
26186;DHT22;20067;48.764;9.176;2022-12-07T08:14:25;4.60;91.30
26186;DHT22;20067;48.764;9.176;2022-12-07T08:16:52;4.60;91.30
26186;DHT22;20067;48.764;9.176;2022-12-07T08:19:18;4.70;91.30
26186;DHT22;20067;48.764;9.176;2022-12-07T08:21:44;4.80;91.30
26186;DHT22;20067;48.764;9.176;2022-12-07T08:24:09;4.90;90.90
26186;DHT22;20067;48.764;9.176;2022-12-07T08:26:35;4.90;91.30
26186;DHT22;20067;48.764;9.176;2022-12-07T08:29:01;4.90;91.30
26186;DHT22;20067;48.764;9.176;2022-12-07T08:31:27;5.00;91.30
26186;DHT22;20067;48.764;9.176;2022-12-07T08:33:53;4.90;90.10
26186;DHT22;20067;48.764;9.176;2022-12-07T08:36:19;4.80;89.60
26186;DHT22;20067;48.764;9.176;2022-12-07T08:38:45;4.70;89.60
26186;DHT22;20067;48.764;9.176;2022-12-07T08:41:10;4.70;89.60
26186;DHT22;20067;48.764;9.176;2022-12-07T08:43:36;4.70;89.50
26186;DHT22;20067;48.764;9.176;2022-12-07T08:46:13;4.70;89.40
26186;DHT22;20067;48.764;9.176;2022-12-07T08:48:50;4.70;89.60
26186;DHT22;20067;48.764;9.176;2022-12-07T08:51:16;4.70;89.40
26186;DHT22;20067;48.764;9.176;2022-12-07T08:53:43;4.70;89.30
26186;DHT22;20067;48.764;9.176;2022-12-07T08:56:09;4.70;89.50
26186;DHT22;20067;48.764;9.176;2022-12-07T08:58:36;4.70;89.20
26186;DHT22;20067;48.764;9.176;2022-12-07T09:01:02;4.70;89.20
26186;DHT22;20067;48.764;9.176;2022-12-07T09:03:28;4.80;89.40
26186;DHT22;20067;48.764;9.176;2022-12-07T09:05:54;4.90;89.40
26186;DHT22;20067;48.764;9.176;2022-12-07T09:08:21;4.90;89.00
26186;DHT22;20067;48.764;9.176;2022-12-07T09:10:47;4.80;88.80
26186;DHT22;20067;48.764;9.176;2022-12-07T09:13:13;4.70;89.10
26186;DHT22;20067;48.764;9.176;2022-12-07T09:15:38;4.70;89.40
26186;DHT22;20067;48.764;9.176;2022-12-07T09:18:04;4.90;89.40
26186;DHT22;20067;48.764;9.176;2022-12-07T09:20:29;5.00;88.60
26186;DHT22;20067;48.764;9.176;2022-12-07T09:22:55;5.00;88.70
26186;DHT22;20067;48.764;9.176;2022-12-07T09:25:21;5.00;88.00
26186;DHT22;20067;48.764;9.176;2022-12-07T09:27:46;5.00;88.10
26186;DHT22;20067;48.764;9.176;2022-12-07T09:30:12;5.10;88.30
26186;DHT22;20067;48.764;9.176;2022-12-07T09:32:38;5.20;88.50
26186;DHT22;20067;48.764;9.176;2022-12-07T09:35:04;5.40;87.90
26186;DHT22;20067;48.764;9.176;2022-12-07T09:37:30;5.50;87.20
26186;DHT22;20067;48.764;9.176;2022-12-07T09:40:00;5.70;87.10
26186;DHT22;20067;48.764;9.176;2022-12-07T09:42:41;5.90;86.20
26186;DHT22;20067;48.764;9.176;2022-12-07T09:45:24;6.10;85.60
26186;DHT22;20067;48.764;9.176;2022-12-07T09:47:52;6.10;85.10
26186;DHT22;20067;48.764;9.176;2022-12-07T09:50:25;6.20;85.40
26186;DHT22;20067;48.764;9.176;2022-12-07T09:52:52;6.30;84.90
26186;DHT22;20067;48.764;9.176;2022-12-07T09:55:27;6.20;84.70
26186;DHT22;20067;48.764;9.176;2022-12-07T09:57:53;6.20;86.00
26186;DHT22;20067;48.764;9.176;2022-12-07T10:00:21;6.30;85.70
26186;DHT22;20067;48.764;9.176;2022-12-07T10:05:29;6.40;84.40
26186;DHT22;20067;48.764;9.176;2022-12-07T10:07:56;6.10;84.80
26186;DHT22;20067;48.764;9.176;2022-12-07T10:10:27;6.00;85.40
26186;DHT22;20067;48.764;9.176;2022-12-07T10:15:20;6.00;86.60
26186;DHT22;20067;48.764;9.176;2022-12-07T10:17:51;6.00;86.20
26186;DHT22;20067;48.764;9.176;2022-12-07T10:20:21;6.10;86.10
26186;DHT22;20067;48.764;9.176;2022-12-07T10:25:32;6.10;85.80
26186;DHT22;20067;48.764;9.176;2022-12-07T10:28:09;6.00;86.40
26186;DHT22;20067;48.764;9.176;2022-12-07T10:30:58;5.70;87.00
26186;DHT22;20067;48.764;9.176;2022-12-07T10:33:55;5.70;87.90
26186;DHT22;20067;48.764;9.176;2022-12-07T10:41:59;6.00;87.50
26186;DHT22;20067;48.764;9.176;2022-12-07T10:44:28;6.10;86.90
26186;DHT22;20067;48.764;9.176;2022-12-07T10:47:03;6.20;87.30
26186;DHT22;20067;48.764;9.176;2022-12-07T10:58:00;6.40;86.70
26186;DHT22;20067;48.764;9.176;2022-12-07T11:00:53;6.40;86.50
26186;DHT22;20067;48.764;9.176;2022-12-07T11:06:37;6.40;86.50
26186;DHT22;20067;48.764;9.176;2022-12-07T11:17:28;6.00;88.50
26186;DHT22;20067;48.764;9.176;2022-12-07T11:20:24;6.10;87.90
26186;DHT22;20067;48.764;9.176;2022-12-07T11:28:19;6.00;88.70
26186;DHT22;20067;48.764;9.176;2022-12-07T11:33:46;6.00;89.00
26186;DHT22;20067;48.764;9.176;2022-12-07T11:42:14;6.20;88.40
26186;DHT22;20067;48.764;9.176;2022-12-07T11:47:47;6.00;89.10
26186;DHT22;20067;48.764;9.176;2022-12-07T11:55:52;6.10;89.10
26186;DHT22;20067;48.764;9.176;2022-12-07T11:58:35;6.10;89.40
26186;DHT22;20067;48.764;9.176;2022-12-07T12:03:50;6.10;89.70
26186;DHT22;20067;48.764;9.176;2022-12-07T12:06:17;6.00;89.70
26186;DHT22;20067;48.764;9.176;2022-12-07T12:08:50;5.90;90.40
26186;DHT22;20067;48.764;9.176;2022-12-07T12:22:15;5.70;91.30
26186;DHT22;20067;48.764;9.176;2022-12-07T12:24:43;5.70;91.30
26186;DHT22;20067;48.764;9.176;2022-12-07T12:27:27;5.70;91.30
26186;DHT22;20067;48.764;9.176;2022-12-07T12:29:57;5.60;91.30
26186;DHT22;20067;48.764;9.176;2022-12-07T12:32:40;5.70;91.30
26186;DHT22;20067;48.764;9.176;2022-12-07T12:37:54;5.50;91.30
26186;DHT22;20067;48.764;9.176;2022-12-07T12:42:51;5.60;91.30
26186;DHT22;20067;48.764;9.176;2022-12-07T12:45:31;5.60;91.30
26186;DHT22;20067;48.764;9.176;2022-12-07T12:48:07;5.70;91.30
26186;DHT22;20067;48.764;9.176;2022-12-07T12:54:03;5.70;91.30
26186;DHT22;20067;48.764;9.176;2022-12-07T12:59:29;5.90;91.30
26186;DHT22;20067;48.764;9.176;2022-12-07T13:02:27;6.00;91.30
26186;DHT22;20067;48.764;9.176;2022-12-07T13:18:03;5.70;91.30
26186;DHT22;20067;48.764;9.176;2022-12-07T13:20:48;5.70;91.30
26186;DHT22;20067;48.764;9.176;2022-12-07T13:23:18;5.80;91.30
26186;DHT22;20067;48.764;9.176;2022-12-07T13:26:14;5.80;91.30
26186;DHT22;20067;48.764;9.176;2022-12-07T13:28:46;5.80;91.30
26186;DHT22;20067;48.764;9.176;2022-12-07T13:31:30;5.90;91.30
26186;DHT22;20067;48.764;9.176;2022-12-07T13:33:57;5.80;91.30
26186;DHT22;20067;48.764;9.176;2022-12-07T13:36:29;5.80;91.30
26186;DHT22;20067;48.764;9.176;2022-12-07T13:41:41;5.70;91.30
26186;DHT22;20067;48.764;9.176;2022-12-07T13:44:16;5.80;91.30
26186;DHT22;20067;48.764;9.176;2022-12-07T13:49:27;5.60;91.30
26186;DHT22;20067;48.764;9.176;2022-12-07T13:51:55;5.70;91.30
26186;DHT22;20067;48.764;9.176;2022-12-07T13:54:32;5.70;91.30
26186;DHT22;20067;48.764;9.176;2022-12-07T13:56:58;5.70;91.30
26186;DHT22;20067;48.764;9.176;2022-12-07T13:59:25;5.70;91.30
26186;DHT22;20067;48.764;9.176;2022-12-07T14:01:53;5.80;91.30
26186;DHT22;20067;48.764;9.176;2022-12-07T14:06:56;6.00;90.60
26186;DHT22;20067;48.764;9.176;2022-12-07T14:09:25;5.90;90.70
26186;DHT22;20067;48.764;9.176;2022-12-07T14:11:53;5.90;90.70
26186;DHT22;20067;48.764;9.176;2022-12-07T14:14:26;5.90;90.30
26186;DHT22;20067;48.764;9.176;2022-12-07T14:17:14;5.90;90.50
26186;DHT22;20067;48.764;9.176;2022-12-07T14:22:34;5.80;90.00
26186;DHT22;20067;48.764;9.176;2022-12-07T14:25:18;5.80;89.90
26186;DHT22;20067;48.764;9.176;2022-12-07T14:30:21;5.90;90.00
26186;DHT22;20067;48.764;9.176;2022-12-07T14:32:51;5.90;90.40
26186;DHT22;20067;48.764;9.176;2022-12-07T14:35:18;6.00;89.80
26186;DHT22;20067;48.764;9.176;2022-12-07T14:37:46;6.00;89.60
26186;DHT22;20067;48.764;9.176;2022-12-07T14:40:27;5.80;90.20
26186;DHT22;20067;48.764;9.176;2022-12-07T14:42:59;5.80;90.40
26186;DHT22;20067;48.764;9.176;2022-12-07T14:45:26;5.80;90.50
26186;DHT22;20067;48.764;9.176;2022-12-07T14:47:51;5.90;90.80
26186;DHT22;20067;48.764;9.176;2022-12-07T14:50:20;5.90;90.80
26186;DHT22;20067;48.764;9.176;2022-12-07T14:52:55;6.00;90.70
26186;DHT22;20067;48.764;9.176;2022-12-07T14:55:29;6.00;90.70
26186;DHT22;20067;48.764;9.176;2022-12-07T14:57:55;6.00;90.60
26186;DHT22;20067;48.764;9.176;2022-12-07T15:00:23;5.90;90.50
26186;DHT22;20067;48.764;9.176;2022-12-07T15:02:49;5.90;91.00
26186;DHT22;20067;48.764;9.176;2022-12-07T15:05:16;6.00;91.00
26186;DHT22;20067;48.764;9.176;2022-12-07T15:07:42;6.00;90.60
26186;DHT22;20067;48.764;9.176;2022-12-07T15:10:20;6.00;91.00
26186;DHT22;20067;48.764;9.176;2022-12-07T15:12:46;6.00;90.90
26186;DHT22;20067;48.764;9.176;2022-12-07T15:15:13;6.00;91.20
26186;DHT22;20067;48.764;9.176;2022-12-07T15:17:39;6.00;91.10
26186;DHT22;20067;48.764;9.176;2022-12-07T15:20:05;5.90;91.30
26186;DHT22;20067;48.764;9.176;2022-12-07T15:22:31;5.80;91.30
26186;DHT22;20067;48.764;9.176;2022-12-07T15:24:57;5.80;91.30
26186;DHT22;20067;48.764;9.176;2022-12-07T15:27:23;5.60;91.30
26186;DHT22;20067;48.764;9.176;2022-12-07T15:29:49;5.60;91.30
26186;DHT22;20067;48.764;9.176;2022-12-07T15:32:14;5.60;91.30
26186;DHT22;20067;48.764;9.176;2022-12-07T15:34:40;5.50;91.30
26186;DHT22;20067;48.764;9.176;2022-12-07T15:37:06;5.50;91.30
26186;DHT22;20067;48.764;9.176;2022-12-07T15:39:32;5.50;91.30
26186;DHT22;20067;48.764;9.176;2022-12-07T15:41:58;5.50;91.30
26186;DHT22;20067;48.764;9.176;2022-12-07T15:44:23;5.40;91.30
26186;DHT22;20067;48.764;9.176;2022-12-07T15:47:07;5.50;91.30
26186;DHT22;20067;48.764;9.176;2022-12-07T15:49:33;5.50;91.30
26186;DHT22;20067;48.764;9.176;2022-12-07T15:51:58;5.50;91.30
26186;DHT22;20067;48.764;9.176;2022-12-07T15:54:28;5.40;91.30
26186;DHT22;20067;48.764;9.176;2022-12-07T15:56:55;5.30;91.30
26186;DHT22;20067;48.764;9.176;2022-12-07T15:59:21;5.30;91.30
26186;DHT22;20067;48.764;9.176;2022-12-07T16:01:47;5.30;91.30
26186;DHT22;20067;48.764;9.176;2022-12-07T16:04:12;5.20;91.30
26186;DHT22;20067;48.764;9.176;2022-12-07T16:06:38;5.20;91.30
26186;DHT22;20067;48.764;9.176;2022-12-07T16:09:04;5.10;91.30
26186;DHT22;20067;48.764;9.176;2022-12-07T16:11:30;5.10;91.30
26186;DHT22;20067;48.764;9.176;2022-12-07T16:13:56;5.20;91.30
26186;DHT22;20067;48.764;9.176;2022-12-07T16:16:22;5.30;91.30
26186;DHT22;20067;48.764;9.176;2022-12-07T16:18:48;5.30;91.30
26186;DHT22;20067;48.764;9.176;2022-12-07T16:21:15;5.20;91.30
26186;DHT22;20067;48.764;9.176;2022-12-07T16:23:41;5.20;91.30
26186;DHT22;20067;48.764;9.176;2022-12-07T16:26:10;5.30;91.30
26186;DHT22;20067;48.764;9.176;2022-12-07T16:28:35;5.30;91.30
26186;DHT22;20067;48.764;9.176;2022-12-07T16:31:06;5.30;91.30
26186;DHT22;20067;48.764;9.176;2022-12-07T16:33:34;5.20;91.30
26186;DHT22;20067;48.764;9.176;2022-12-07T16:36:00;5.10;91.30
26186;DHT22;20067;48.764;9.176;2022-12-07T16:38:26;5.00;91.30
26186;DHT22;20067;48.764;9.176;2022-12-07T16:40:53;5.00;91.30
26186;DHT22;20067;48.764;9.176;2022-12-07T16:43:18;4.90;91.30
26186;DHT22;20067;48.764;9.176;2022-12-07T16:45:45;4.90;91.30
26186;DHT22;20067;48.764;9.176;2022-12-07T16:48:11;5.00;91.30
26186;DHT22;20067;48.764;9.176;2022-12-07T16:50:39;4.90;91.30
26186;DHT22;20067;48.764;9.176;2022-12-07T16:53:10;4.90;91.30
26186;DHT22;20067;48.764;9.176;2022-12-07T16:55:38;4.90;91.30
26186;DHT22;20067;48.764;9.176;2022-12-07T16:58:05;4.80;91.30
26186;DHT22;20067;48.764;9.176;2022-12-07T17:00:31;4.60;91.30
26186;DHT22;20067;48.764;9.176;2022-12-07T17:02:56;4.60;91.30
26186;DHT22;20067;48.764;9.176;2022-12-07T17:05:22;4.50;91.30
26186;DHT22;20067;48.764;9.176;2022-12-07T17:07:49;4.50;91.30
26186;DHT22;20067;48.764;9.176;2022-12-07T17:10:14;4.40;91.30
26186;DHT22;20067;48.764;9.176;2022-12-07T17:12:40;4.40;91.30
26186;DHT22;20067;48.764;9.176;2022-12-07T17:15:06;4.40;91.30
26186;DHT22;20067;48.764;9.176;2022-12-07T17:17:45;4.30;91.30
26186;DHT22;20067;48.764;9.176;2022-12-07T17:20:12;4.30;91.30
26186;DHT22;20067;48.764;9.176;2022-12-07T17:22:39;4.20;91.30
26186;DHT22;20067;48.764;9.176;2022-12-07T17:25:05;4.10;91.30
26186;DHT22;20067;48.764;9.176;2022-12-07T17:27:31;4.10;91.30
26186;DHT22;20067;48.764;9.176;2022-12-07T17:29:57;4.10;91.30
26186;DHT22;20067;48.764;9.176;2022-12-07T17:32:22;4.10;91.30
26186;DHT22;20067;48.764;9.176;2022-12-07T17:34:48;4.00;91.30
26186;DHT22;20067;48.764;9.176;2022-12-07T17:37:13;4.00;91.30
26186;DHT22;20067;48.764;9.176;2022-12-07T17:39:39;4.10;91.30
26186;DHT22;20067;48.764;9.176;2022-12-07T17:42:05;4.10;91.30
26186;DHT22;20067;48.764;9.176;2022-12-07T17:44:49;4.20;91.30
26186;DHT22;20067;48.764;9.176;2022-12-07T17:47:14;4.20;91.30
26186;DHT22;20067;48.764;9.176;2022-12-07T17:49:42;4.20;91.30
26186;DHT22;20067;48.764;9.176;2022-12-07T17:52:09;4.20;91.30
26186;DHT22;20067;48.764;9.176;2022-12-07T17:54:53;4.20;91.30
26186;DHT22;20067;48.764;9.176;2022-12-07T17:57:19;4.20;91.30
26186;DHT22;20067;48.764;9.176;2022-12-07T17:59:45;4.20;91.30
26186;DHT22;20067;48.764;9.176;2022-12-07T18:02:10;4.20;91.30
26186;DHT22;20067;48.764;9.176;2022-12-07T18:04:36;4.20;91.30
26186;DHT22;20067;48.764;9.176;2022-12-07T18:07:01;4.30;91.30
26186;DHT22;20067;48.764;9.176;2022-12-07T18:09:29;4.40;91.30
26186;DHT22;20067;48.764;9.176;2022-12-07T18:11:55;4.30;91.30
26186;DHT22;20067;48.764;9.176;2022-12-07T18:14:21;4.20;91.30
26186;DHT22;20067;48.764;9.176;2022-12-07T18:16:46;4.20;91.30
26186;DHT22;20067;48.764;9.176;2022-12-07T18:19:13;4.20;91.30